Time;durP1;ratioP1;P1;durP2;ratioP2;P2;SDS_P1;SDS_P2;PMS_P1;PMS_P2;Temp;Humidity;BMP_temperature;BMP_pressure;BME280_temperature;BME280_humidity;BME280_pressure;Samples;Min_cycle;Max_cycle;Signal;HPM_P1;HPM_P2
2021/06/28 00:00:11;;;;;;;4.35;4.03;;;;;;;;;;4995086;28;20235;-47
2021/06/28 00:02:37;;;;;;;6.38;4.10;;;;;;;;;;4998060;28;20579;-47
2021/06/28 00:05:04;;;;;;;5.25;4.15;;;;;;;;;;5003952;28;20252;-47
2021/06/28 00:07:30;;;;;;;4.85;3.95;;;;;;;;;;4997056;28;20228;-47
2021/06/28 00:09:56;;;;;;;4.20;3.90;;;;;;;;;;5017466;28;20551;-47
2021/06/28 00:12:22;;;;;;;4.68;3.78;;;;;;;;;;5017285;28;20198;-47
2021/06/28 00:14:48;;;;;;;5.22;4.43;;;;;;;;;;5012398;28;20453;-47
2021/06/28 00:17:14;;;;;;;4.05;3.75;;;;;;;;;;5002324;28;20181;-47
2021/06/28 00:19:40;;;;;;;4.78;4.38;;;;;;;;;;5014157;28;20176;-47
2021/06/28 00:22:06;;;;;;;6.45;4.47;;;;;;;;;;5002776;28;20660;-47
2021/06/28 00:24:32;;;;;;;4.57;4.13;;;;;;;;;;4998110;28;20196;-46
2021/06/28 00:26:58;;;;;;;4.80;4.40;;;;;;;;;;5011992;28;20192;-47
2021/06/28 00:29:24;;;;;;;4.40;4.00;;;;;;;;;;5017914;28;20180;-47
2021/06/28 00:31:55;;;;;;;4.80;4.40;;;;;;;;;;5008989;28;20215;-47
2021/06/28 00:34:21;;;;;;;4.55;4.15;;;;;;;;;;4998191;28;20165;-47
2021/06/28 00:36:47;;;;;;;4.30;3.90;;;;;;;;;;5002278;28;20472;-47
2021/06/28 00:39:13;;;;;;;3.90;3.60;;;;;;;;;;4999794;28;20172;-47
2021/06/28 00:41:39;;;;;;;6.30;4.18;;;;;;;;;;5016043;28;20184;-47
2021/06/28 00:44:06;;;;;;;4.20;3.58;;;;;;;;;;5011582;28;20209;-47
2021/06/28 00:46:32;;;;;;;4.40;4.00;;;;;;;;;;5009622;28;20177;-47
2021/06/28 00:48:58;;;;;;;3.97;3.67;;;;;;;;;;5002916;28;20176;-48
2021/06/28 00:51:24;;;;;;;4.13;3.72;;;;;;;;;;5012525;28;20290;-47
2021/06/28 00:53:52;;;;;;;4.78;4.20;;;;;;;;;;5005147;28;20181;-47
2021/06/28 00:56:18;;;;;;;3.53;3.33;;;;;;;;;;5003570;28;20551;-47
2021/06/28 00:58:44;;;;;;;3.95;3.65;;;;;;;;;;4997967;28;20256;-47
2021/06/28 01:01:11;;;;;;;4.63;4.13;;;;;;;;;;4997666;28;20220;-47
2021/06/28 01:03:38;;;;;;;4.15;3.85;;;;;;;;;;4997588;28;20260;-47
2021/06/28 01:06:05;;;;;;;4.30;4.00;;;;;;;;;;5000856;28;20178;-47
2021/06/28 01:08:31;;;;;;;4.38;4.07;;;;;;;;;;5002462;28;20197;-47
2021/06/28 01:10:57;;;;;;;4.28;3.80;;;;;;;;;;5012195;28;20205;-47
2021/06/28 01:13:25;;;;;;;4.45;4.10;;;;;;;;;;4997863;28;20264;-47
2021/06/28 01:15:51;;;;;;;4.43;4.13;;;;;;;;;;5002384;28;20191;-47
2021/06/28 01:18:17;;;;;;;4.82;3.67;;;;;;;;;;5015138;28;20411;-47
2021/06/28 01:20:43;;;;;;;4.30;4.00;;;;;;;;;;5017172;28;20287;-47
2021/06/28 01:23:33;;;;;;;4.30;4.00;;;;;;;;;;5006429;28;20178;-47
2021/06/28 01:26:04;;;;;;;4.57;4.18;;;;;;;;;;4999255;28;20556;-47
2021/06/28 01:28:30;;;;;;;5.00;4.15;;;;;;;;;;5016836;28;20180;-47
2021/06/28 01:30:58;;;;;;;4.25;3.95;;;;;;;;;;5016972;28;20211;-47
2021/06/28 01:33:24;;;;;;;3.95;3.65;;;;;;;;;;5016979;28;20165;-47
2021/06/28 01:35:51;;;;;;;4.97;3.92;;;;;;;;;;5004024;28;20193;-47
2021/06/28 01:38:17;;;;;;;4.50;4.10;;;;;;;;;;5007919;28;20418;-47
2021/06/28 01:40:43;;;;;;;4.38;4.03;;;;;;;;;;5009168;28;20231;-47
2021/06/28 01:46:13;;;;;;;5.03;4.00;;;;;;;;;;5004681;28;20215;-47
2021/06/28 01:48:39;;;;;;;3.92;3.63;;;;;;;;;;4997069;28;20509;-47
2021/06/28 01:51:06;;;;;;;4.47;4.18;;;;;;;;;;5005989;28;20484;-47
2021/06/28 01:53:32;;;;;;;4.85;4.45;;;;;;;;;;5012000;28;20177;-47
2021/06/28 01:56:04;;;;;;;5.40;4.03;;;;;;;;;;5014015;28;20191;-47
2021/06/28 01:58:30;;;;;;;4.10;3.80;;;;;;;;;;4996878;28;20195;-47
2021/06/28 02:00:56;;;;;;;4.22;3.90;;;;;;;;;;4996729;28;20240;-47
2021/06/28 02:03:24;;;;;;;3.90;3.60;;;;;;;;;;4997018;28;20553;-47
2021/06/28 02:05:51;;;;;;;4.85;3.90;;;;;;;;;;4999954;28;20177;-47
2021/06/28 02:08:18;;;;;;;5.40;4.50;;;;;;;;;;5007436;28;20271;-47
2021/06/28 02:10:48;;;;;;;4.93;4.18;;;;;;;;;;5000501;28;20176;-47
2021/06/28 02:13:14;;;;;;;4.85;4.07;;;;;;;;;;5012045;28;20185;-47
2021/06/28 02:15:40;;;;;;;4.38;4.00;;;;;;;;;;4996781;28;20648;-47
2021/06/28 02:18:07;;;;;;;3.90;3.60;;;;;;;;;;5003010;28;20200;-47
2021/06/28 02:20:33;;;;;;;4.47;4.05;;;;;;;;;;5016313;28;20165;-47
2021/06/28 02:23:07;;;;;;;4.95;3.90;;;;;;;;;;5011266;28;20283;-47
2021/06/28 02:25:33;;;;;;;4.97;3.75;;;;;;;;;;5026574;28;20575;-47
2021/06/28 02:27:59;;;;;;;4.45;4.05;;;;;;;;;;5015326;28;20247;-47
2021/06/28 02:30:25;;;;;;;4.22;3.92;;;;;;;;;;5005422;28;20623;-47
2021/06/28 02:32:51;;;;;;;4.35;3.95;;;;;;;;;;4999317;28;20207;-47
2021/06/28 02:35:17;;;;;;;4.15;3.83;;;;;;;;;;5012765;28;20574;-47
2021/06/28 02:37:43;;;;;;;4.18;3.85;;;;;;;;;;5006515;28;20185;-47
2021/06/28 02:40:11;;;;;;;8.20;4.22;;;;;;;;;;5010188;28;20176;-47
2021/06/28 02:42:37;;;;;;;4.97;4.03;;;;;;;;;;5013297;28;20183;-47
2021/06/28 02:45:04;;;;;;;4.88;4.40;;;;;;;;;;4996060;28;20173;-47
2021/06/28 02:47:30;;;;;;;5.65;4.35;;;;;;;;;;4995016;28;20602;-47
2021/06/28 02:49:56;;;;;;;5.53;4.18;;;;;;;;;;4999408;28;20193;-47
2021/06/28 02:52:22;;;;;;;4.95;4.55;;;;;;;;;;5006659;28;20456;-47
2021/06/28 02:54:48;;;;;;;4.93;4.25;;;;;;;;;;5009916;28;20188;-47
2021/06/28 02:57:14;;;;;;;5.35;4.85;;;;;;;;;;5013111;28;20184;-47
2021/06/28 02:59:40;;;;;;;4.70;4.30;;;;;;;;;;5015257;28;20251;-47
2021/06/28 03:02:06;;;;;;;4.90;4.30;;;;;;;;;;5005188;28;20588;-47
2021/06/28 03:04:32;;;;;;;7.00;4.22;;;;;;;;;;4999225;28;20195;-47
2021/06/28 03:06:58;;;;;;;4.70;4.15;;;;;;;;;;5009353;28;20184;-47
2021/06/28 03:09:24;;;;;;;5.25;4.70;;;;;;;;;;5013128;28;20211;-47
2021/06/28 03:11:50;;;;;;;4.40;4.00;;;;;;;;;;5009983;28;20587;-47
2021/06/28 03:14:17;;;;;;;5.15;4.70;;;;;;;;;;5027311;28;20219;-47
2021/06/28 03:16:43;;;;;;;5.05;4.65;;;;;;;;;;4999665;28;20478;-47
2021/06/28 03:19:09;;;;;;;4.88;4.47;;;;;;;;;;5008033;28;20771;-47
2021/06/28 03:21:35;;;;;;;5.03;4.55;;;;;;;;;;4999884;28;20241;-47
2021/06/28 03:24:01;;;;;;;5.18;4.57;;;;;;;;;;5015830;28;20554;-47
2021/06/28 03:26:27;;;;;;;4.65;4.07;;;;;;;;;;5015268;28;20189;-47
2021/06/28 03:28:53;;;;;;;4.63;4.22;;;;;;;;;;4995595;28;20196;-47
2021/06/28 03:31:19;;;;;;;4.85;4.45;;;;;;;;;;4998431;28;20201;-47
2021/06/28 03:33:45;;;;;;;4.45;4.05;;;;;;;;;;5015009;28;20460;-47
2021/06/28 03:36:10;;;;;;;4.63;4.22;;;;;;;;;;5013559;28;20180;-47
2021/06/28 03:38:37;;;;;;;5.82;4.38;;;;;;;;;;5002248;28;20184;-47
2021/06/28 03:41:03;;;;;;;4.35;3.95;;;;;;;;;;5012744;28;20188;-47
2021/06/28 03:43:29;;;;;;;5.07;3.95;;;;;;;;;;4994812;28;20446;-47
2021/06/28 03:45:55;;;;;;;5.22;4.22;;;;;;;;;;4998390;28;20611;-48
2021/06/28 03:48:21;;;;;;;4.03;3.72;;;;;;;;;;5014587;28;20180;-47
2021/06/28 03:50:48;;;;;;;6.45;4.50;;;;;;;;;;5013046;28;20185;-47
2021/06/28 03:53:14;;;;;;;5.15;4.68;;;;;;;;;;4998628;28;20209;-47
2021/06/28 03:55:40;;;;;;;4.88;4.47;;;;;;;;;;5003555;28;20189;-48
2021/06/28 03:58:06;;;;;;;6.38;4.55;;;;;;;;;;4994548;28;20161;-48
2021/06/28 04:00:32;;;;;;;4.82;4.38;;;;;;;;;;4994539;28;20207;-47
2021/06/28 04:03:00;;;;;;;7.28;4.20;;;;;;;;;;5001564;28;20248;-48
2021/06/28 04:05:26;;;;;;;8.93;4.90;;;;;;;;;;5011888;28;20183;-47
2021/06/28 04:07:53;;;;;;;4.90;4.40;;;;;;;;;;5000682;28;20276;-48
2021/06/28 04:10:20;;;;;;;4.82;4.32;;;;;;;;;;5029457;28;20238;-47
2021/06/28 04:12:47;;;;;;;6.40;4.72;;;;;;;;;;5014210;28;20646;-47
2021/06/28 04:15:14;;;;;;;6.35;4.30;;;;;;;;;;5027353;28;20545;-48
2021/06/28 04:17:41;;;;;;;5.00;4.50;;;;;;;;;;4998184;28;20185;-48
2021/06/28 04:20:08;;;;;;;6.13;4.53;;;;;;;;;;5004759;28;20223;-47
2021/06/28 04:22:34;;;;;;;4.95;4.55;;;;;;;;;;5013654;28;20180;-48
2021/06/28 04:25:00;;;;;;;5.25;4.70;;;;;;;;;;5008386;28;20247;-48
2021/06/28 04:27:26;;;;;;;5.20;4.50;;;;;;;;;;5010460;28;20189;-47
2021/06/28 04:29:52;;;;;;;4.95;4.47;;;;;;;;;;4999975;28;20235;-47
2021/06/28 04:32:18;;;;;;;5.10;4.60;;;;;;;;;;5016150;28;20208;-48
2021/06/28 04:34:46;;;;;;;5.18;4.50;;;;;;;;;;5016986;28;20552;-48
2021/06/28 04:37:12;;;;;;;5.15;4.68;;;;;;;;;;4999681;28;20539;-48
2021/06/28 04:39:38;;;;;;;4.88;4.43;;;;;;;;;;5015459;28;20245;-48
2021/06/28 04:42:04;;;;;;;4.55;4.10;;;;;;;;;;4998294;28;20666;-47
2021/06/28 04:44:30;;;;;;;5.35;4.35;;;;;;;;;;4998218;28;20185;-48
2021/06/28 04:46:56;;;;;;;4.80;4.50;;;;;;;;;;4998709;28;20184;-48
2021/06/28 04:49:22;;;;;;;7.05;4.78;;;;;;;;;;5017341;28;20184;-48
2021/06/28 04:51:48;;;;;;;5.78;4.72;;;;;;;;;;5007838;28;20209;-48
2021/06/28 04:54:14;;;;;;;5.10;4.57;;;;;;;;;;5007397;28;20507;-47
2021/06/28 04:56:41;;;;;;;5.22;4.72;;;;;;;;;;4997317;28;20196;-48
2021/06/28 04:59:07;;;;;;;4.70;4.30;;;;;;;;;;5008961;28;20626;-48
2021/06/28 05:01:33;;;;;;;4.53;4.13;;;;;;;;;;5012778;28;20215;-48
2021/06/28 05:03:59;;;;;;;4.43;4.13;;;;;;;;;;5007006;28;20201;-47
2021/06/28 05:06:25;;;;;;;4.95;4.38;;;;;;;;;;5000673;28;20215;-48
2021/06/28 05:08:51;;;;;;;8.95;4.47;;;;;;;;;;5016241;28;20189;-47
2021/06/28 05:11:17;;;;;;;5.10;4.65;;;;;;;;;;5009121;28;20350;-47
2021/06/28 05:13:43;;;;;;;4.90;4.50;;;;;;;;;;5007512;28;20181;-48
2021/06/28 05:16:09;;;;;;;6.70;3.90;;;;;;;;;;4997138;28;20184;-47
2021/06/28 05:18:35;;;;;;;5.18;4.15;;;;;;;;;;5009016;28;20173;-48
2021/06/28 05:21:01;;;;;;;7.82;4.53;;;;;;;;;;4997628;28;20192;-48
2021/06/28 05:23:27;;;;;;;5.82;4.47;;;;;;;;;;5010420;28;20476;-48
2021/06/28 05:25:54;;;;;;;4.70;4.30;;;;;;;;;;4996707;28;20165;-47
2021/06/28 05:28:20;;;;;;;4.35;4.03;;;;;;;;;;5002897;28;20183;-47
2021/06/28 05:30:46;;;;;;;4.60;4.15;;;;;;;;;;5007214;28;20423;-47
2021/06/28 05:33:12;;;;;;;4.30;3.90;;;;;;;;;;4998665;28;20165;-48
2021/06/28 05:35:38;;;;;;;5.28;4.20;;;;;;;;;;5016801;28;20532;-47
2021/06/28 05:38:04;;;;;;;4.68;4.28;;;;;;;;;;5006861;28;20195;-47
2021/06/28 05:40:30;;;;;;;4.93;4.53;;;;;;;;;;5007186;28;20232;-47
2021/06/28 05:42:56;;;;;;;6.05;4.10;;;;;;;;;;4997539;28;20181;-47
2021/06/28 05:45:22;;;;;;;4.78;4.30;;;;;;;;;;5002336;28;20556;-47
2021/06/28 05:47:48;;;;;;;4.72;4.32;;;;;;;;;;5012899;28;20191;-48
2021/06/28 05:50:17;;;;;;;4.20;3.90;;;;;;;;;;4999278;28;20185;-48
2021/06/28 05:52:44;;;;;;;4.65;4.18;;;;;;;;;;5000377;28;20622;-47
2021/06/28 05:55:10;;;;;;;4.72;4.32;;;;;;;;;;5003414;28;20181;-48
2021/06/28 05:57:36;;;;;;;4.53;4.00;;;;;;;;;;5003015;28;20196;-47
2021/06/28 06:00:04;;;;;;;4.03;3.67;;;;;;;;;;5001100;28;20185;-47
2021/06/28 06:02:31;;;;;;;4.53;4.07;;;;;;;;;;4996745;28;20205;-47
2021/06/28 06:04:57;;;;;;;4.28;3.83;;;;;;;;;;4996695;28;20193;-47
2021/06/28 06:07:23;;;;;;;5.07;4.50;;;;;;;;;;5007524;28;20184;-47
2021/06/28 06:09:48;;;;;;;4.93;3.83;;;;;;;;;;5008001;28;20247;-48
2021/06/28 06:12:14;;;;;;;4.40;4.05;;;;;;;;;;5000184;28;20320;-47
2021/06/28 06:14:40;;;;;;;4.50;3.83;;;;;;;;;;5018844;28;20180;-47
2021/06/28 06:17:07;;;;;;;4.38;4.07;;;;;;;;;;5007661;28;20187;-47
2021/06/28 06:19:33;;;;;;;4.63;4.18;;;;;;;;;;5010690;28;20187;-47
2021/06/28 06:21:59;;;;;;;4.63;4.18;;;;;;;;;;5004458;28;20177;-48
2021/06/28 06:24:28;;;;;;;4.75;4.10;;;;;;;;;;5015014;28;20193;-47
2021/06/28 06:26:56;;;;;;;6.55;4.00;;;;;;;;;;5032578;28;20176;-48
2021/06/28 06:29:22;;;;;;;5.75;4.28;;;;;;;;;;5020510;28;20176;-48
2021/06/28 06:31:48;;;;;;;10.05;4.55;;;;;;;;;;5021007;28;20212;-47
2021/06/28 06:34:14;;;;;;;7.05;3.90;;;;;;;;;;5035902;28;20172;-47
2021/06/28 06:36:40;;;;;;;7.38;4.38;;;;;;;;;;5012524;28;20191;-47
2021/06/28 06:39:06;;;;;;;9.25;4.00;;;;;;;;;;5006795;28;20181;-48
2021/06/28 06:41:32;;;;;;;6.35;4.80;;;;;;;;;;4997407;28;20240;-47
2021/06/28 06:43:59;;;;;;;5.05;4.43;;;;;;;;;;4996124;28;20184;-48
2021/06/28 06:46:25;;;;;;;5.43;4.20;;;;;;;;;;4995687;28;20184;-47
2021/06/28 06:48:51;;;;;;;5.13;3.95;;;;;;;;;;5004798;28;20234;-47
2021/06/28 06:51:17;;;;;;;4.32;3.90;;;;;;;;;;5000169;28;20204;-48
2021/06/28 06:53:44;;;;;;;5.28;3.60;;;;;;;;;;5008210;28;20214;-47
2021/06/28 06:56:10;;;;;;;4.05;3.75;;;;;;;;;;4998036;28;20243;-48
2021/06/28 06:58:36;;;;;;;5.97;3.78;;;;;;;;;;5008840;28;20188;-48
2021/06/28 07:01:04;;;;;;;4.20;3.90;;;;;;;;;;5011146;28;20248;-47
2021/06/28 07:03:29;;;;;;;5.40;3.90;;;;;;;;;;5004109;28;20462;-48
2021/06/28 07:05:56;;;;;;;4.78;3.88;;;;;;;;;;5007173;28;20178;-47
2021/06/28 07:08:23;;;;;;;4.53;4.13;;;;;;;;;;5012183;28;20197;-47
2021/06/28 07:10:49;;;;;;;5.45;4.15;;;;;;;;;;5001027;28;20493;-48
2021/06/28 07:13:15;;;;;;;5.82;4.18;;;;;;;;;;5013616;28;20193;-47
2021/06/28 07:15:41;;;;;;;6.50;4.70;;;;;;;;;;5004830;28;20177;-48
2021/06/28 07:18:08;;;;;;;4.18;3.78;;;;;;;;;;5000701;28;20447;-47
2021/06/28 07:20:34;;;;;;;6.57;4.00;;;;;;;;;;4997889;28;20507;-47
2021/06/28 07:23:00;;;;;;;5.70;4.13;;;;;;;;;;4996768;28;20176;-47
2021/06/28 07:25:26;;;;;;;4.50;4.10;;;;;;;;;;5000910;28;20181;-48
2021/06/28 07:27:53;;;;;;;4.78;4.28;;;;;;;;;;4995466;28;20192;-47
2021/06/28 07:30:21;;;;;;;5.07;4.50;;;;;;;;;;4994665;28;20177;-47
2021/06/28 07:32:48;;;;;;;3.90;3.60;;;;;;;;;;4995621;28;20197;-47
2021/06/28 07:35:15;;;;;;;4.50;4.10;;;;;;;;;;5009945;28;20191;-48
2021/06/28 07:37:41;;;;;;;4.43;4.05;;;;;;;;;;5008093;28;20495;-47
2021/06/28 07:40:08;;;;;;;4.38;3.97;;;;;;;;;;5009517;28;20176;-47
2021/06/28 07:42:34;;;;;;;4.32;3.97;;;;;;;;;;5010414;28;21553;-47
2021/06/28 07:45:00;;;;;;;5.22;3.80;;;;;;;;;;4996504;28;20524;-47
2021/06/28 07:47:26;;;;;;;4.00;3.70;;;;;;;;;;4994547;28;20260;-47
2021/06/28 07:49:53;;;;;;;4.40;4.03;;;;;;;;;;4995270;28;20171;-48
2021/06/28 07:52:19;;;;;;;4.60;4.03;;;;;;;;;;4997177;28;20196;-47
2021/06/28 07:54:45;;;;;;;4.25;3.85;;;;;;;;;;5009302;28;20176;-48
2021/06/28 07:57:12;;;;;;;4.40;4.00;;;;;;;;;;5012539;28;20197;-47
2021/06/28 07:59:38;;;;;;;4.07;3.78;;;;;;;;;;5011631;28;20231;-47
2021/06/28 08:02:05;;;;;;;4.00;3.70;;;;;;;;;;4996356;28;20212;-48
2021/06/28 08:04:31;;;;;;;4.10;3.80;;;;;;;;;;5004987;28;20205;-47
2021/06/28 08:06:58;;;;;;;4.90;4.18;;;;;;;;;;4999714;28;20575;-48
2021/06/28 08:09:24;;;;;;;4.15;3.75;;;;;;;;;;5009314;28;20251;-48
2021/06/28 08:11:50;;;;;;;4.40;3.97;;;;;;;;;;5008996;28;20279;-47
2021/06/28 08:14:17;;;;;;;4.22;3.83;;;;;;;;;;5008472;28;20177;-48
2021/06/28 08:16:44;;;;;;;4.30;3.90;;;;;;;;;;5007542;28;20177;-48
2021/06/28 08:19:11;;;;;;;4.15;3.83;;;;;;;;;;5000262;28;20185;-48
2021/06/28 08:21:38;;;;;;;4.20;3.83;;;;;;;;;;4994965;28;20239;-48
2021/06/28 08:24:05;;;;;;;4.55;4.10;;;;;;;;;;4999271;28;20177;-47
2021/06/28 08:26:32;;;;;;;4.80;4.40;;;;;;;;;;5000679;28;20196;-47
2021/06/28 08:28:58;;;;;;;6.18;4.13;;;;;;;;;;5003763;28;20443;-47
2021/06/28 08:31:24;;;;;;;9.15;4.07;;;;;;;;;;5008846;28;20266;-47
2021/06/28 08:33:50;;;;;;;3.92;3.63;;;;;;;;;;5001370;28;20655;-48
2021/06/28 08:36:16;;;;;;;4.43;3.50;;;;;;;;;;4997594;28;20181;-48
2021/06/28 08:38:41;;;;;;;4.05;3.38;;;;;;;;;;5023920;28;20203;-48
2021/06/28 08:41:09;;;;;;;4.30;4.00;;;;;;;;;;5033921;28;20255;-47
2021/06/28 08:43:37;;;;;;;5.75;4.07;;;;;;;;;;5014965;28;20242;-48
2021/06/28 08:46:03;;;;;;;4.30;3.90;;;;;;;;;;5013663;28;20618;-48
2021/06/28 08:48:30;;;;;;;4.55;3.45;;;;;;;;;;5003037;28;20200;-48
2021/06/28 08:50:56;;;;;;;3.72;3.42;;;;;;;;;;4998157;28;20177;-48
2021/06/28 08:53:22;;;;;;;4.43;3.70;;;;;;;;;;4997934;28;20183;-47
2021/06/28 08:55:51;;;;;;;3.80;3.50;;;;;;;;;;5036524;28;20576;-48
2021/06/28 08:58:17;;;;;;;4.22;3.50;;;;;;;;;;5037193;28;20179;-47
2021/06/28 09:00:43;;;;;;;3.65;3.35;;;;;;;;;;5037629;28;20562;-48
2021/06/28 09:03:10;;;;;;;3.95;3.65;;;;;;;;;;5032897;28;20204;-47
2021/06/28 09:05:50;;;;;;;3.58;3.38;;;;;;;;;;5017717;28;20168;-47
2021/06/28 09:08:17;;;;;;;3.80;3.50;;;;;;;;;;5017362;28;20175;-47
2021/06/28 09:10:44;;;;;;;4.28;3.85;;;;;;;;;;5008565;28;20451;-48
2021/06/28 09:13:11;;;;;;;3.60;3.40;;;;;;;;;;5013956;28;21059;-48
2021/06/28 09:15:38;;;;;;;4.75;3.78;;;;;;;;;;5010305;28;20181;-48
2021/06/28 09:18:20;;;;;;;4.47;4.07;;;;;;;;;;5004635;28;20205;-47
2021/06/28 09:20:46;;;;;;;3.85;3.53;;;;;;;;;;5014471;28;20211;-48
2021/06/28 09:23:19;;;;;;;3.97;3.65;;;;;;;;;;5006365;28;20635;-47
2021/06/28 09:25:45;;;;;;;4.13;3.70;;;;;;;;;;4997183;28;20177;-48
2021/06/28 09:28:12;;;;;;;4.07;3.78;;;;;;;;;;5014857;28;20276;-48
2021/06/28 09:30:50;;;;;;;3.88;3.58;;;;;;;;;;5005701;28;20244;-47
2021/06/28 09:33:20;;;;;;;4.10;3.80;;;;;;;;;;5008912;28;20184;-48
2021/06/28 09:35:46;;;;;;;4.20;3.80;;;;;;;;;;5005569;28;20205;-48
2021/06/28 09:38:29;;;;;;;4.05;3.75;;;;;;;;;;5005389;28;20236;-47
2021/06/28 09:40:55;;;;;;;4.10;3.47;;;;;;;;;;5036359;28;20183;-48
2021/06/28 09:43:25;;;;;;;4.55;3.97;;;;;;;;;;5004293;28;20257;-47
2021/06/28 09:45:55;;;;;;;6.13;4.15;;;;;;;;;;5012384;28;20270;-48
2021/06/28 09:48:31;;;;;;;4.47;3.90;;;;;;;;;;5034167;28;20172;-47
2021/06/28 09:51:15;;;;;;;5.45;4.20;;;;;;;;;;5006301;28;20200;-48
2021/06/28 09:53:41;;;;;;;4.60;4.20;;;;;;;;;;5002765;28;20177;-48
2021/06/28 09:56:07;;;;;;;5.80;4.25;;;;;;;;;;4995063;28;20169;-47
2021/06/28 09:58:33;;;;;;;5.05;4.38;;;;;;;;;;5007806;28;20181;-48
2021/06/28 10:01:02;;;;;;;4.60;4.10;;;;;;;;;;5004273;28;20263;-48
2021/06/28 10:03:29;;;;;;;4.78;4.38;;;;;;;;;;5031450;28;20239;-48
2021/06/28 10:06:06;;;;;;;4.30;3.90;;;;;;;;;;5012421;28;20410;-48
2021/06/28 10:08:33;;;;;;;4.63;4.10;;;;;;;;;;5004209;28;20180;-48
2021/06/28 10:11:18;;;;;;;5.68;4.00;;;;;;;;;;5004678;28;20230;-48
2021/06/28 10:14:03;;;;;;;4.13;3.45;;;;;;;;;;4998990;28;20527;-48
2021/06/28 10:16:31;;;;;;;4.40;4.00;;;;;;;;;;5006887;28;20194;-48
2021/06/28 10:18:58;;;;;;;3.92;3.63;;;;;;;;;;5005902;28;20256;-48
2021/06/28 10:21:24;;;;;;;3.90;3.60;;;;;;;;;;5001344;28;20216;-48
2021/06/28 10:23:51;;;;;;;3.30;3.10;;;;;;;;;;5035147;28;20603;-48
2021/06/28 10:26:17;;;;;;;4.30;4.00;;;;;;;;;;5033638;28;20172;-48
2021/06/28 10:28:44;;;;;;;4.13;3.60;;;;;;;;;;5008288;28;20200;-48
2021/06/28 10:31:10;;;;;;;4.22;3.83;;;;;;;;;;5008241;28;20609;-48
2021/06/28 10:33:37;;;;;;;3.42;3.17;;;;;;;;;;5005121;28;20172;-48
2021/06/28 10:36:08;;;;;;;3.58;3.28;;;;;;;;;;5022662;28;20190;-48
2021/06/28 10:38:44;;;;;;;3.22;3.03;;;;;;;;;;5015290;28;20173;-48
2021/06/28 10:41:10;;;;;;;3.55;3.25;;;;;;;;;;5003935;28;20536;-48
2021/06/28 10:43:37;;;;;;;3.13;2.92;;;;;;;;;;5003716;28;20189;-48
2021/06/28 10:46:05;;;;;;;3.85;3.38;;;;;;;;;;5007788;28;20182;-48
2021/06/28 10:48:44;;;;;;;3.95;3.15;;;;;;;;;;5000427;28;20172;-48
2021/06/28 10:51:10;;;;;;;4.18;3.13;;;;;;;;;;5014808;28;20207;-48
2021/06/28 10:53:36;;;;;;;3.50;3.20;;;;;;;;;;5015483;28;20212;-48
2021/06/28 10:59:04;;;;;;;3.67;3.20;;;;;;;;;;5013526;28;20262;-48
2021/06/28 11:01:36;;;;;;;3.20;2.90;;;;;;;;;;5006541;28;20311;-48
2021/06/28 11:04:05;;;;;;;3.05;2.85;;;;;;;;;;5006805;28;20207;-48
2021/06/28 11:06:32;;;;;;;3.30;3.00;;;;;;;;;;5018119;28;20186;-48
2021/06/28 11:09:04;;;;;;;3.00;2.70;;;;;;;;;;5020141;28;20184;-48
2021/06/28 11:11:46;;;;;;;3.33;3.03;;;;;;;;;;4998806;28;20622;-48
2021/06/28 11:14:21;;;;;;;3.78;3.15;;;;;;;;;;5004235;28;20222;-48
2021/06/28 11:16:57;;;;;;;3.17;2.97;;;;;;;;;;5003350;28;20175;-48
2021/06/28 11:19:51;;;;;;;3.00;2.80;;;;;;;;;;4993795;28;20247;-48
2021/06/28 11:22:26;;;;;;;3.50;2.92;;;;;;;;;;4995665;28;20181;-48
2021/06/28 11:25:02;;;;;;;2.80;2.60;;;;;;;;;;4994712;28;20185;-48
2021/06/28 11:27:28;;;;;;;4.28;2.75;;;;;;;;;;4994692;28;20181;-48
2021/06/28 11:29:55;;;;;;;3.10;2.90;;;;;;;;;;4995541;28;20181;-48
2021/06/28 11:32:21;;;;;;;3.25;3.05;;;;;;;;;;4995257;28;20304;-48
2021/06/28 11:34:47;;;;;;;2.90;2.70;;;;;;;;;;4996080;28;20265;-48
2021/06/28 11:37:13;;;;;;;3.20;2.90;;;;;;;;;;5004114;28;20181;-48
2021/06/28 11:39:53;;;;;;;3.85;2.85;;;;;;;;;;5013893;28;20180;-48
2021/06/28 11:42:20;;;;;;;3.03;2.72;;;;;;;;;;5000372;28;20247;-48
2021/06/28 11:44:53;;;;;;;3.25;2.95;;;;;;;;;;5005679;28;20234;-48
2021/06/28 11:47:39;;;;;;;3.30;3.10;;;;;;;;;;5013380;28;20184;-48
2021/06/28 11:50:24;;;;;;;2.72;2.53;;;;;;;;;;4998550;28;20184;-48
2021/06/28 11:52:58;;;;;;;3.53;3.20;;;;;;;;;;5010616;28;20590;-47
2021/06/28 11:55:24;;;;;;;3.90;2.97;;;;;;;;;;5005375;28;20181;-48
2021/06/28 11:57:54;;;;;;;3.05;2.83;;;;;;;;;;4998990;28;20904;-48
2021/06/28 12:00:20;;;;;;;3.22;3.03;;;;;;;;;;5005954;28;20187;-48
2021/06/28 12:02:46;;;;;;;2.83;2.63;;;;;;;;;;4994958;28;20193;-48
2021/06/28 12:05:12;;;;;;;3.80;2.92;;;;;;;;;;5009571;28;20250;-48
2021/06/28 12:07:40;;;;;;;2.70;2.50;;;;;;;;;;5014133;28;20706;-48
2021/06/28 12:10:06;;;;;;;3.10;2.80;;;;;;;;;;5011002;28;20176;-49
2021/06/28 12:12:32;;;;;;;3.60;3.22;;;;;;;;;;4994745;28;20208;-48
2021/06/28 12:14:59;;;;;;;2.70;2.50;;;;;;;;;;5010679;28;20601;-48
2021/06/28 12:17:29;;;;;;;2.75;2.55;;;;;;;;;;5000489;28;20600;-48
2021/06/28 12:20:00;;;;;;;2.60;2.40;;;;;;;;;;5009012;28;20181;-48
2021/06/28 12:22:30;;;;;;;2.83;2.63;;;;;;;;;;5014867;28;20227;-48
2021/06/28 12:24:58;;;;;;;2.97;2.78;;;;;;;;;;5013021;28;20192;-48
2021/06/28 12:27:42;;;;;;;2.90;2.70;;;;;;;;;;4997748;28;20177;-48
2021/06/28 12:30:10;;;;;;;2.85;2.65;;;;;;;;;;5009418;28;20234;-48
2021/06/28 12:32:44;;;;;;;2.90;2.70;;;;;;;;;;5014464;28;20251;-48
2021/06/28 12:35:11;;;;;;;2.47;2.30;;;;;;;;;;5009795;28;20180;-48
2021/06/28 12:37:39;;;;;;;2.70;2.50;;;;;;;;;;5017322;28;20157;-47
2021/06/28 12:40:11;;;;;;;2.85;2.60;;;;;;;;;;5028091;28;20172;-48
2021/06/28 12:42:41;;;;;;;2.65;2.45;;;;;;;;;;5017997;28;20188;-48
2021/06/28 12:45:07;;;;;;;2.83;2.63;;;;;;;;;;5016229;28;20184;-48
2021/06/28 12:47:33;;;;;;;2.65;2.45;;;;;;;;;;5020592;28;20215;-48
2021/06/28 12:49:59;;;;;;;2.58;2.38;;;;;;;;;;5006204;28;20445;-48
2021/06/28 12:52:27;;;;;;;2.80;2.58;;;;;;;;;;5016940;28;20204;-48
2021/06/28 12:55:00;;;;;;;4.45;2.63;;;;;;;;;;5011794;28;20235;-48
2021/06/28 12:57:26;;;;;;;3.90;2.90;;;;;;;;;;5008548;28;20483;-48
2021/06/28 12:59:52;;;;;;;2.85;2.65;;;;;;;;;;4999188;28;20177;-48
2021/06/28 13:02:35;;;;;;;2.85;2.65;;;;;;;;;;4998067;28;20208;-48
2021/06/28 13:05:08;;;;;;;2.60;2.45;;;;;;;;;;5003560;28;20199;-48
2021/06/28 13:07:34;;;;;;;3.53;2.35;;;;;;;;;;5016740;28;20181;-48
2021/06/28 13:10:02;;;;;;;4.45;2.83;;;;;;;;;;5017498;28;20165;-48
2021/06/28 13:12:28;;;;;;;3.30;3.03;;;;;;;;;;4999782;28;20215;-48
2021/06/28 13:15:25;;;;;;;2.88;2.67;;;;;;;;;;5005642;28;20169;-48
2021/06/28 13:17:57;;;;;;;2.90;2.70;;;;;;;;;;5014991;28;20184;-48
2021/06/28 13:20:23;;;;;;;4.35;2.85;;;;;;;;;;5009339;28;20211;-48
2021/06/28 13:22:50;;;;;;;3.13;2.90;;;;;;;;;;5016967;28;20256;-48
2021/06/28 13:25:20;;;;;;;2.95;2.45;;;;;;;;;;5010541;28;20451;-48
2021/06/28 13:27:46;;;;;;;3.95;3.00;;;;;;;;;;4997023;28;20600;-48
2021/06/28 13:30:30;;;;;;;3.40;2.47;;;;;;;;;;5006877;28;20510;-48
2021/06/28 13:33:07;;;;;;;3.30;2.70;;;;;;;;;;5012041;28;20223;-48
2021/06/28 13:35:33;;;;;;;6.00;2.58;;;;;;;;;;4996995;28;20173;-48
2021/06/28 13:38:08;;;;;;;9.35;3.22;;;;;;;;;;4997331;28;20276;-48
2021/06/28 13:40:34;;;;;;;7.40;2.78;;;;;;;;;;4999636;28;20230;-48
2021/06/28 13:43:00;;;;;;;4.65;3.30;;;;;;;;;;5007918;28;20576;-48
2021/06/28 13:45:28;;;;;;;5.07;2.72;;;;;;;;;;5001273;28;20568;-48
2021/06/28 13:47:54;;;;;;;8.23;3.30;;;;;;;;;;4996768;28;20185;-47
2021/06/28 13:50:23;;;;;;;4.63;3.20;;;;;;;;;;4999998;28;20184;-48
2021/06/28 13:52:50;;;;;;;5.40;2.92;;;;;;;;;;4996864;28;20514;-48
2021/06/28 13:55:16;;;;;;;3.05;2.80;;;;;;;;;;4997065;28;20248;-48
2021/06/28 13:57:48;;;;;;;5.07;3.05;;;;;;;;;;5000140;28;20247;-48
2021/06/28 14:00:15;;;;;;;7.38;3.13;;;;;;;;;;4998267;28;20208;-48
2021/06/28 14:02:41;;;;;;;5.55;2.90;;;;;;;;;;5011379;28;20811;-48
2021/06/28 14:05:07;;;;;;;5.40;3.05;;;;;;;;;;5005324;28;20196;-48
2021/06/28 14:07:33;;;;;;;5.05;2.97;;;;;;;;;;5015786;28;20175;-48
2021/06/28 14:09:59;;;;;;;3.25;2.95;;;;;;;;;;5015716;28;20192;-48
2021/06/28 14:12:25;;;;;;;6.78;2.92;;;;;;;;;;4999321;28;20680;-48
2021/06/28 14:14:51;;;;;;;17.00;3.45;;;;;;;;;;5003693;28;20253;-48
2021/06/28 14:17:17;;;;;;;6.72;3.17;;;;;;;;;;5015582;28;20258;-48
2021/06/28 14:19:44;;;;;;;7.57;3.60;;;;;;;;;;5001367;28;20565;-48
2021/06/28 14:22:10;;;;;;;7.40;3.30;;;;;;;;;;4996634;28;20170;-47
2021/06/28 14:24:36;;;;;;;7.20;3.22;;;;;;;;;;4996558;28;20185;-48
2021/06/28 14:27:02;;;;;;;6.78;3.55;;;;;;;;;;5006216;28;20459;-48
2021/06/28 14:29:33;;;;;;;7.47;3.05;;;;;;;;;;5008686;28;20184;-48
2021/06/28 14:31:59;;;;;;;5.30;3.33;;;;;;;;;;5011581;28;20220;-48
2021/06/28 14:34:25;;;;;;;9.18;3.70;;;;;;;;;;5008001;28;20212;-48
2021/06/28 14:36:51;;;;;;;5.32;3.25;;;;;;;;;;4999480;28;20165;-48
2021/06/28 14:39:17;;;;;;;6.25;3.58;;;;;;;;;;4996947;28;20177;-48
2021/06/28 14:41:43;;;;;;;9.32;3.05;;;;;;;;;;4996421;28;20180;-48
2021/06/28 14:44:09;;;;;;;7.93;3.10;;;;;;;;;;5001464;28;20548;-48
2021/06/28 14:46:35;;;;;;;3.88;2.80;;;;;;;;;;5014297;28;20428;-48
2021/06/28 14:49:01;;;;;;;3.85;3.25;;;;;;;;;;5006413;28;20182;-48
2021/06/28 14:51:27;;;;;;;4.47;3.15;;;;;;;;;;5011501;28;20196;-48